Time;durP1;ratioP1;P1;durP2;ratioP2;P2;SDS_P1;SDS_P2;PMS_P1;PMS_P2;Temp;Humidity;BMP_temperature;BMP_pressure;BME280_temperature;BME280_humidity;BME280_pressure;Samples;Min_cycle;Max_cycle;Signal;HPM_P1;HPM_P2
2022/01/28 00:00:05;;;;;;;49.90;24.57;;;;;;;0.79;76.79;100333.44;126300;1099;104267;-78
2022/01/28 00:03:01;;;;;;;52.13;26.57;;;;;;;0.78;76.28;100341.95;126297;1099;104156;-78
2022/01/28 00:05:33;;;;;;;50.27;25.13;;;;;;;0.77;76.88;100337.60;126290;1099;104203;-78
2022/01/28 00:08:06;;;;;;;51.80;25.63;;;;;;;0.77;76.57;100345.34;126170;1098;104274;-78
2022/01/28 00:10:40;;;;;;;48.97;23.80;;;;;;;0.75;76.68;100344.31;126292;1099;104157;-77
2022/01/28 00:13:20;;;;;;;47.80;23.90;;;;;;;0.70;76.93;100347.48;126298;1099;104149;-78
2022/01/28 00:19:04;;;;;;;50.53;25.53;;;;;;;0.63;76.43;100355.56;126142;1099;104149;-79
2022/01/28 00:38:28;;;;;;;57.07;27.83;;;;;;;0.43;76.27;100324.81;126244;1099;104159;-79
2022/01/28 00:41:00;;;;;;;55.53;28.77;;;;;;;0.44;76.74;100321.46;126306;1099;104156;-79
2022/01/28 00:43:31;;;;;;;51.47;26.70;;;;;;;0.43;76.60;100319.66;126297;1099;104223;-78
2022/01/28 00:46:02;;;;;;;54.37;27.27;;;;;;;0.42;76.50;100316.19;126316;1099;104153;-78
2022/01/28 00:48:34;;;;;;;53.60;26.97;;;;;;;0.40;77.19;100324.59;126193;1099;104191;-78
2022/01/28 00:51:05;;;;;;;62.20;29.67;;;;;;;0.37;76.79;100316.62;126269;1099;104363;-78
2022/01/28 00:53:37;;;;;;;55.60;26.97;;;;;;;0.36;76.28;100320.90;126250;1099;104261;-78
2022/01/28 00:56:08;;;;;;;57.60;28.63;;;;;;;0.33;77.23;100321.56;126286;1099;104620;-79
2022/01/28 00:58:39;;;;;;;58.73;29.33;;;;;;;0.32;76.71;100322.33;126235;1099;104201;-79
2022/01/28 01:01:11;;;;;;;56.53;28.10;;;;;;;0.31;76.77;100311.90;126287;1099;104208;-79
2022/01/28 01:03:42;;;;;;;59.00;28.97;;;;;;;0.30;77.14;100308.43;126317;1099;104229;-79
2022/01/28 01:06:14;;;;;;;61.43;30.57;;;;;;;0.30;76.65;100303.27;126214;1099;101921;-78
2022/01/28 01:08:45;;;;;;;60.67;31.10;;;;;;;0.32;76.66;100300.80;126264;1099;104258;-79
2022/01/28 01:11:20;;;;;;;57.53;30.17;;;;;;;0.33;76.85;100300.91;126291;1099;104240;-79
2022/01/28 01:13:52;;;;;;;62.17;30.87;;;;;;;0.34;76.91;100294.98;126276;1099;104152;-79
2022/01/28 01:16:29;;;;;;;57.30;28.40;;;;;;;0.35;76.24;100285.54;126323;1099;104319;-79
2022/01/28 01:19:16;;;;;;;60.97;30.50;;;;;;;0.33;76.28;100282.84;126261;1099;104165;-80
2022/01/28 01:21:53;;;;;;;55.43;26.53;;;;;;;0.33;76.48;100267.36;126291;1099;104188;-78
2022/01/28 01:24:28;;;;;;;55.90;28.90;;;;;;;0.35;76.49;100264.89;126299;1099;104172;-78
2022/01/28 01:26:59;;;;;;;;;;;;;;;0.35;76.58;100264.89;126301;1099;104175;-78
2022/01/28 01:29:31;;;;;;;56.63;28.03;;;;;;;0.34;77.12;100266.58;126306;1098;104181;-78
2022/01/28 01:32:11;;;;;;;50.50;26.80;;;;;;;0.34;76.74;100268.24;126320;1098;104206;-78
2022/01/28 01:34:43;;;;;;;51.73;26.10;;;;;;;0.37;77.12;100267.58;126264;1099;104245;-79
2022/01/28 01:37:15;;;;;;;59.13;26.30;;;;;;;0.38;76.41;100259.06;126313;1098;104192;-79
2022/01/28 01:39:46;;;;;;;57.53;27.27;;;;;;;0.39;76.75;100254.02;126251;1099;104156;-79
2022/01/28 01:42:26;;;;;;;56.27;26.90;;;;;;;0.39;76.69;100245.34;126264;1099;104143;-79
2022/01/28 01:53:58;;;;;;;53.17;24.00;;;;;;;0.35;77.02;100251.98;125160;1102;104214;-78
2022/01/28 01:56:31;;;;;;;57.05;24.87;;;;;;;0.38;76.76;100261.64;125203;1102;104144;-78
2022/01/28 01:59:03;;;;;;;53.30;24.83;;;;;;;0.39;76.60;100263.41;124883;1102;104168;-78
2022/01/28 02:01:34;;;;;;;47.50;24.27;;;;;;;0.41;76.58;100265.33;125241;1102;104178;-78
2022/01/28 02:04:06;;;;;;;50.30;24.63;;;;;;;0.44;76.78;100270.72;125207;1102;104318;-79
2022/01/28 02:06:40;;;;;;;51.53;24.67;;;;;;;0.46;76.55;100275.99;125274;1102;104144;-78
2022/01/28 02:09:11;;;;;;;49.67;23.12;;;;;;;0.45;76.60;100269.94;125109;1102;104156;-78
2022/01/28 02:11:44;;;;;;;52.57;24.90;;;;;;;0.46;76.75;100268.25;125216;1102;104165;-78
2022/01/28 02:14:15;;;;;;;47.40;22.40;;;;;;;0.51;76.55;100266.88;125222;1102;104158;-78
2022/01/28 02:16:46;;;;;;;48.23;21.63;;;;;;;0.53;76.52;100268.80;125153;1102;104140;-78
2022/01/28 02:19:18;;;;;;;47.50;23.33;;;;;;;0.55;76.98;100268.91;125171;1102;104172;-78
2022/01/28 02:21:51;;;;;;;44.30;20.47;;;;;;;0.56;76.32;100272.38;125163;1102;104223;-78
2022/01/28 02:24:28;;;;;;;43.98;22.52;;;;;;;0.56;76.74;100270.68;125175;1102;104258;-78
2022/01/28 02:27:00;;;;;;;45.00;22.10;;;;;;;0.53;76.73;100265.30;125216;1102;104156;-78
2022/01/28 02:29:34;;;;;;;47.27;23.80;;;;;;;0.54;76.39;100256.78;125147;1102;104155;-78
2022/01/28 02:32:08;;;;;;;49.33;24.20;;;;;;;0.52;76.88;100250.62;125225;1102;104185;-78
2022/01/28 02:34:40;;;;;;;;;;;;;;;0.50;76.86;100254.78;125207;1102;104253;-78
2022/01/28 02:37:11;;;;;;;54.17;25.90;;;;;;;0.47;77.07;100259.73;125161;1102;104256;-78
2022/01/28 02:39:43;;;;;;;53.53;26.67;;;;;;;0.41;77.01;100261.86;125109;1102;104140;-78
2022/01/28 02:42:20;;;;;;;60.53;28.13;;;;;;;0.37;76.45;100260.72;125134;1102;104258;-78
2022/01/28 02:44:54;;;;;;;60.47;29.67;;;;;;;0.34;76.60;100258.84;125218;1102;104624;-78
2022/01/28 02:47:33;;;;;;;61.80;28.63;;;;;;;0.34;76.52;100256.26;125184;1102;104258;-78
2022/01/28 02:50:08;;;;;;;59.43;29.17;;;;;;;0.37;76.71;100259.84;125115;1102;104496;-78
2022/01/28 02:52:50;;;;;;;60.03;29.00;;;;;;;0.34;76.98;100245.94;125196;1102;104162;-79
2022/01/28 02:55:22;;;;;;;55.87;28.33;;;;;;;0.35;76.88;100245.13;125140;1101;104704;-78
2022/01/28 02:58:04;;;;;;;58.53;29.40;;;;;;;0.33;76.90;100241.55;125202;1102;104279;-78
2022/01/28 03:00:35;;;;;;;54.77;27.27;;;;;;;0.32;76.58;100238.85;125168;1102;118899;-78
2022/01/28 03:03:07;;;;;;;54.83;27.00;;;;;;;0.31;76.89;100232.80;125160;1102;104274;-78
2022/01/28 03:05:38;;;;;;;52.73;25.67;;;;;;;0.31;76.80;100231.89;125270;1102;104536;-78
2022/01/28 03:08:09;;;;;;;48.23;24.67;;;;;;;0.28;76.75;100237.75;125155;1102;104187;-78
2022/01/28 03:10:57;;;;;;;55.33;25.67;;;;;;;0.23;76.67;100228.75;125198;1102;104193;-79
2022/01/28 03:13:33;;;;;;;51.40;25.13;;;;;;;0.20;76.64;100241.43;125225;1102;104399;-78
2022/01/28 03:16:11;;;;;;;50.17;24.70;;;;;;;0.16;77.05;100236.85;125154;1102;104249;-79
2022/01/28 03:18:48;;;;;;;50.23;25.37;;;;;;;0.15;76.98;100243.67;125152;1102;104233;-79
2022/01/28 03:24:13;;;;;;;53.83;25.83;;;;;;;0.19;77.03;100242.23;125219;1102;104268;-78
2022/01/28 03:26:46;;;;;;;52.95;25.35;;;;;;;0.22;77.04;100236.38;125240;1102;104290;-78
2022/01/28 03:29:18;;;;;;;54.48;26.02;;;;;;;0.23;76.81;100238.19;125168;1102;104198;-78
2022/01/28 03:31:49;;;;;;;50.03;24.23;;;;;;;0.24;76.57;100238.30;125166;1102;104150;-78
2022/01/28 03:34:20;;;;;;;53.30;24.87;;;;;;;0.24;76.96;100227.09;125159;1102;104210;-78
2022/01/28 03:36:52;;;;;;;51.37;25.20;;;;;;;0.25;77.13;100223.70;125233;1099;104176;-78
2022/01/28 03:39:24;;;;;;;53.80;27.00;;;;;;;0.27;77.15;100230.78;125141;1102;104167;-78
2022/01/28 03:41:55;;;;;;;55.30;27.53;;;;;;;0.26;76.52;100228.97;125229;1102;102061;-78
2022/01/28 03:44:26;;;;;;;53.07;26.80;;;;;;;0.28;77.23;100223.92;125250;1099;104223;-78
2022/01/28 03:46:58;;;;;;;55.23;26.83;;;;;;;0.29;76.96;100223.14;125207;1101;104146;-79
2022/01/28 03:49:30;;;;;;;55.57;27.53;;;;;;;0.27;77.36;100229.89;125258;1099;104175;-79
2022/01/28 03:52:03;;;;;;;54.00;27.47;;;;;;;0.23;76.42;100218.43;125251;1102;118833;-78
2022/01/28 03:54:34;;;;;;;55.30;26.37;;;;;;;0.22;77.01;100219.23;125178;1100;104253;-78
2022/01/28 03:57:07;;;;;;;55.20;26.30;;;;;;;0.24;76.57;100221.93;125255;1099;104257;-78
2022/01/28 03:59:38;;;;;;;53.77;25.13;;;;;;;0.23;76.57;100208.11;125227;1099;104214;-78
2022/01/28 04:02:10;;;;;;;51.83;25.63;;;;;;;0.22;77.26;100206.33;125258;1097;104155;-78
2022/01/28 04:13:25;;;;;;;54.97;25.63;;;;;;;0.27;77.25;100194.64;125227;1099;104174;-78
2022/01/28 04:16:17;;;;;;;54.40;25.20;;;;;;;0.27;77.01;100194.64;125204;1099;104149;-78
2022/01/28 04:18:49;;;;;;;56.93;26.80;;;;;;;0.26;76.82;100195.42;125134;1102;104210;-78
2022/01/28 04:21:20;;;;;;;53.33;25.30;;;;;;;0.28;76.79;100199.03;125114;1099;104323;-79
2022/01/28 04:23:52;;;;;;;52.03;25.30;;;;;;;0.29;77.28;100197.34;125256;1099;104146;-79
2022/01/28 04:26:24;;;;;;;53.43;25.57;;;;;;;0.31;77.13;100196.67;125228;1099;104245;-78
2022/01/28 04:28:55;;;;;;;48.63;22.33;;;;;;;0.33;76.82;100194.20;125323;1099;104222;-79
2022/01/28 04:31:26;;;;;;;44.27;21.43;;;;;;;0.34;76.77;100190.81;125254;1099;104174;-78
2022/01/28 04:34:00;;;;;;;40.73;20.03;;;;;;;0.37;77.07;100197.89;125186;1099;104159;-79
2022/01/28 04:36:36;;;;;;;40.90;20.30;;;;;;;0.39;77.18;100193.72;125233;1099;104235;-78
2022/01/28 04:39:14;;;;;;;43.60;20.37;;;;;;;0.40;76.82;100192.94;125237;1099;104249;-78
2022/01/28 04:41:55;;;;;;;43.77;19.80;;;;;;;0.40;77.11;100198.99;125215;1099;104252;-78
2022/01/28 04:44:35;;;;;;;40.00;18.80;;;;;;;0.41;77.21;100200.80;125264;1099;104142;-79
2022/01/28 04:47:14;;;;;;;46.87;21.00;;;;;;;0.44;76.89;100200.13;125174;1101;104216;-79
2022/01/28 04:49:57;;;;;;;44.13;21.47;;;;;;;0.45;77.36;100195.08;125263;1099;104284;-79
2022/01/28 04:52:47;;;;;;;42.20;20.17;;;;;;;0.45;76.82;100200.23;125195;1102;104239;-79
2022/01/28 04:55:38;;;;;;;42.40;19.30;;;;;;;0.45;76.90;100204.48;125311;1099;104159;-79
2022/01/28 04:58:22;;;;;;;44.53;21.20;;;;;;;0.42;76.67;100199.10;125267;1099;104153;-79
2022/01/28 05:01:10;;;;;;;44.15;22.93;;;;;;;0.42;76.73;100193.94;125222;1099;104274;-79
2022/01/28 05:03:55;;;;;;;50.77;24.80;;;;;;;0.43;76.62;100193.16;125183;1099;104159;-79
2022/01/28 05:07:04;;;;;;;48.63;25.23;;;;;;;0.46;76.88;100198.54;125274;1099;104176;-79
2022/01/28 05:12:58;;;;;;;47.20;24.13;;;;;;;0.51;77.36;100212.66;125174;1098;104437;-79
2022/01/28 05:26:52;;;;;;;57.13;26.73;;;;;;;0.45;77.31;100188.99;125129;1099;104169;-80
2022/01/28 05:29:24;;;;;;;46.30;24.23;;;;;;;0.42;77.04;100187.11;125118;1099;104173;-79
2022/01/28 05:31:55;;;;;;;52.63;27.40;;;;;;;0.43;76.80;100204.38;125156;1102;104169;-80
2022/01/28 05:34:27;;;;;;;51.07;26.10;;;;;;;0.49;77.09;100211.67;125149;1099;104153;-80
2022/01/28 05:36:59;;;;;;;49.00;23.83;;;;;;;0.48;76.93;100221.11;125258;1099;104149;-80
2022/01/28 05:39:30;;;;;;;49.53;25.57;;;;;;;0.46;76.81;100204.59;125148;1099;104188;-81
2022/01/28 05:42:02;;;;;;;47.53;25.23;;;;;;;0.44;76.85;100197.55;125103;1099;104265;-81
2022/01/28 05:44:33;;;;;;;49.73;25.53;;;;;;;0.42;76.88;100199.10;125177;1099;104215;-81
2022/01/28 05:47:06;;;;;;;51.27;26.00;;;;;;;0.41;77.04;100197.33;125264;1099;104149;-81
2022/01/28 05:49:38;;;;;;;53.33;28.20;;;;;;;0.40;76.79;100193.83;125392;1099;104161;-80
2022/01/28 05:52:10;;;;;;;59.17;29.87;;;;;;;0.40;77.15;100190.36;125266;1102;104201;-80
2022/01/28 05:54:42;;;;;;;61.37;32.60;;;;;;;0.38;76.88;100195.41;125230;1099;104265;-80
2022/01/28 05:57:13;;;;;;;69.67;36.13;;;;;;;0.35;76.88;100190.92;125269;1099;104274;-80
2022/01/28 05:59:45;;;;;;;75.80;40.10;;;;;;;0.31;77.01;100195.75;125244;1099;104327;-79
2022/01/28 06:02:18;;;;;;;81.53;43.33;;;;;;;0.28;76.94;100195.53;125164;1100;104329;-79
2022/01/28 06:04:49;;;;;;;86.70;46.57;;;;;;;0.28;77.19;100211.02;125173;1102;118939;-79
2022/01/28 06:07:23;;;;;;;85.13;45.47;;;;;;;0.29;77.18;100200.80;125184;1102;104271;-80
2022/01/28 06:09:55;;;;;;;85.50;47.70;;;;;;;0.30;76.90;100202.61;125217;1102;104152;-80
2022/01/28 06:12:26;;;;;;;83.33;45.47;;;;;;;0.29;77.36;100208.55;125275;1102;104252;-79
2022/01/28 06:14:58;;;;;;;89.27;49.10;;;;;;;0.26;76.96;100213.48;125234;1099;104143;-81
2022/01/28 06:17:32;;;;;;;85.83;46.20;;;;;;;0.22;76.90;100219.23;125302;1099;104206;-80
2022/01/28 06:20:04;;;;;;;77.12;41.50;;;;;;;0.06;77.27;100206.00;125106;1099;104185;-80
2022/01/28 06:22:40;;;;;;;76.10;40.43;;;;;;;0.09;77.17;100224.28;125099;1099;104239;-80
2022/01/28 06:25:13;;;;;;;71.67;37.13;;;;;;;0.06;77.30;100235.27;125203;1099;104631;-81
2022/01/28 06:27:46;;;;;;;76.57;37.85;;;;;;;0.07;77.24;100233.60;125216;1099;104156;-80
2022/01/28 06:30:20;;;;;;;57.07;30.93;;;;;;;0.07;76.96;100249.97;125049;1102;104201;-81
2022/01/28 06:32:53;;;;;;;63.57;31.03;;;;;;;0.07;76.67;100243.92;125044;1102;102032;-79
2022/01/28 06:35:25;;;;;;;56.53;29.77;;;;;;;0.08;77.12;100233.72;125068;1099;104254;-78
2022/01/28 06:37:56;;;;;;;62.27;33.87;;;;;;;0.13;77.08;100239.21;125075;1099;104171;-80
2022/01/28 06:40:41;;;;;;;57.87;29.97;;;;;;;0.18;77.60;100235.27;125166;1102;104178;-80
2022/01/28 06:43:18;;;;;;;57.20;29.70;;;;;;;0.20;76.68;100228.53;125092;1102;104238;-79
2022/01/28 06:45:52;;;;;;;56.87;29.23;;;;;;;0.17;76.47;100228.30;125021;1102;108201;-79
2022/01/28 06:48:26;;;;;;;59.70;30.10;;;;;;;0.16;76.26;100229.11;125103;1099;104249;-79
2022/01/28 06:50:58;;;;;;;55.45;29.95;;;;;;;0.16;77.15;100235.16;125166;1100;104137;-80
2022/01/28 06:53:30;;;;;;;60.97;31.73;;;;;;;0.17;76.25;100234.39;125082;1101;104153;-79
2022/01/28 06:56:06;;;;;;;67.90;32.00;;;;;;;0.21;76.79;100243.23;125082;1102;104142;-79
2022/01/28 06:58:39;;;;;;;59.03;30.17;;;;;;;0.24;76.78;100251.20;125168;1099;104201;-79
2022/01/28 07:01:18;;;;;;;59.30;29.83;;;;;;;0.27;76.67;100255.70;125146;1099;104274;-80
2022/01/28 07:03:52;;;;;;;61.37;30.70;;;;;;;0.28;76.53;100257.47;125018;1102;105463;-78
2022/01/28 07:06:28;;;;;;;61.03;31.00;;;;;;;0.29;77.10;100264.44;125205;1102;104190;-80
2022/01/28 07:09:01;;;;;;;;;;;;;;;0.33;76.78;100271.63;125153;1099;104688;-80
2022/01/28 07:11:35;;;;;;;63.07;32.17;;;;;;;0.34;77.14;100274.33;125042;1102;104241;-80
2022/01/28 07:14:09;;;;;;;63.17;32.50;;;;;;;0.36;77.02;100282.18;125049;1102;104302;-80
2022/01/28 07:16:47;;;;;;;64.83;32.37;;;;;;;0.40;77.03;100270.38;125121;1099;109448;-80
2022/01/28 07:19:21;;;;;;;64.90;32.30;;;;;;;0.48;77.23;100262.42;125092;1100;104236;-79
2022/01/28 07:21:58;;;;;;;61.80;32.20;;;;;;;0.59;77.36;100257.98;125145;1099;104290;-79
2022/01/28 07:24:42;;;;;;;63.90;31.87;;;;;;;0.69;77.02;100251.82;125099;1100;104222;-80
2022/01/28 07:27:21;;;;;;;;;;;;;;;0.78;77.16;100233.47;125135;1102;104245;-81
2022/01/28 07:29:57;;;;;;;62.40;30.17;;;;;;;0.89;77.29;100237.73;125069;1099;104185;-81
2022/01/28 07:32:34;;;;;;;55.73;28.07;;;;;;;0.99;77.22;100234.97;125237;1099;104169;-79
2022/01/28 07:35:07;;;;;;;53.87;28.03;;;;;;;1.10;77.41;100232.25;125159;1099;104204;-79
2022/01/28 07:37:41;;;;;;;47.40;21.30;;;;;;;1.19;77.59;100232.89;125145;1099;104210;-78
2022/01/28 07:40:15;;;;;;;42.60;21.17;;;;;;;1.28;77.58;100236.10;125093;1102;104223;-77
2022/01/28 07:42:49;;;;;;;41.53;19.83;;;;;;;1.38;77.74;100222.98;125135;1102;104375;-79
2022/01/28 07:45:22;;;;;;;42.13;19.75;;;;;;;1.47;77.60;100220.14;125039;1102;104329;-80
2022/01/28 07:48:10;;;;;;;31.68;15.28;;;;;;;1.56;77.77;100205.24;125035;1102;104335;-83
2022/01/28 07:50:46;;;;;;;35.83;16.60;;;;;;;1.65;77.82;100191.12;125041;1102;104384;-80
2022/01/28 07:53:18;;;;;;;35.63;18.23;;;;;;;1.74;77.78;100178.80;125086;1102;104210;-78
2022/01/28 07:55:50;;;;;;;35.47;16.97;;;;;;;1.81;77.63;100170.66;124969;1102;104358;-81
2022/01/28 07:58:22;;;;;;;37.53;16.50;;;;;;;1.88;77.84;100154.71;125091;1102;104303;-80
2022/01/28 08:00:55;;;;;;;35.37;17.17;;;;;;;1.92;77.41;100153.23;125109;1101;104185;-79
2022/01/28 08:03:27;;;;;;;32.27;15.73;;;;;;;1.97;77.46;100159.59;125001;1102;104343;-79
2022/01/28 08:06:00;;;;;;;33.30;16.27;;;;;;;2.01;77.52;100158.09;124998;1102;104364;-78
2022/01/28 08:08:34;;;;;;;32.98;16.15;;;;;;;2.07;77.73;100133.52;125059;1102;104182;-78
2022/01/28 08:11:09;;;;;;;32.53;14.90;;;;;;;2.15;77.83;100124.53;125127;1102;104441;-78
2022/01/28 08:13:41;;;;;;;32.37;15.37;;;;;;;2.25;77.31;100130.30;125140;1102;104261;-78
2022/01/28 08:16:14;;;;;;;31.47;14.90;;;;;;;2.32;77.71;100129.86;124968;1102;104517;-78
2022/01/28 08:18:51;;;;;;;31.13;15.10;;;;;;;2.42;77.62;100140.00;125064;1102;104197;-79
2022/01/28 08:21:23;;;;;;;31.73;14.50;;;;;;;2.50;77.50;100128.42;124792;1102;104294;-79
2022/01/28 08:23:57;;;;;;;34.77;15.93;;;;;;;2.60;77.62;100128.98;124835;1102;104463;-78
2022/01/28 08:26:28;;;;;;;32.77;15.50;;;;;;;2.72;78.33;100141.81;125008;1102;104427;-78
2022/01/28 08:29:00;;;;;;;37.43;16.87;;;;;;;2.85;77.83;100139.14;125054;1102;104153;-78
2022/01/28 08:31:35;;;;;;;31.40;14.63;;;;;;;2.96;77.49;100142.39;125063;1102;104226;-79
2022/01/28 08:34:08;;;;;;;30.57;14.87;;;;;;;3.07;77.33;100154.32;125111;1103;104152;-78
2022/01/28 08:36:40;;;;;;;32.45;16.20;;;;;;;3.18;77.74;100163.63;125169;1099;104187;-78
2022/01/28 08:39:14;;;;;;;33.80;15.73;;;;;;;3.26;77.06;100169.27;125105;1102;105709;-78
2022/01/28 08:41:46;;;;;;;32.90;15.85;;;;;;;3.28;76.80;100187.52;125089;1099;104245;-79
2022/01/28 08:44:20;;;;;;;29.70;15.20;;;;;;;3.29;77.07;100191.88;125145;1099;103996;-77
2022/01/28 08:46:52;;;;;;;33.67;16.17;;;;;;;3.32;77.43;100186.88;125135;1102;104221;-78
2022/01/28 08:49:25;;;;;;;34.63;16.37;;;;;;;3.41;76.93;100192.61;125045;1099;104191;-78
2022/01/28 08:52:00;;;;;;;32.87;17.20;;;;;;;3.46;77.28;100190.28;125071;1099;104197;-79
2022/01/28 08:54:32;;;;;;;31.37;15.90;;;;;;;3.54;77.68;100197.73;125009;1102;104220;-77
2022/01/28 08:57:05;;;;;;;32.83;16.13;;;;;;;3.60;77.42;100200.69;125059;1099;104184;-79
2022/01/28 08:59:39;;;;;;;33.73;15.88;;;;;;;3.67;76.67;100195.86;125171;1102;104248;-78
2022/01/28 09:02:12;;;;;;;34.53;16.07;;;;;;;3.73;76.75;100196.21;125010;1099;104280;-79
2022/01/28 09:04:45;;;;;;;30.40;15.35;;;;;;;3.81;76.73;100199.25;125033;1099;104150;-78
2022/01/28 09:07:21;;;;;;;32.83;16.13;;;;;;;3.87;77.10;100195.30;125024;1102;104299;-77
2022/01/28 09:09:53;;;;;;;30.73;15.50;;;;;;;3.94;77.05;100201.73;125107;1102;104217;-77
2022/01/28 09:12:35;;;;;;;31.40;16.40;;;;;;;4.00;77.17;100190.81;125119;1102;104210;-76
2022/01/28 09:15:08;;;;;;;33.17;16.43;;;;;;;4.09;77.50;100183.55;125169;1099;104222;-77
2022/01/28 09:17:42;;;;;;;32.33;15.63;;;;;;;4.16;77.67;100179.58;125174;1102;104172;-77
2022/01/28 09:20:14;;;;;;;31.60;15.97;;;;;;;4.24;77.02;100184.41;125072;1102;104258;-77
2022/01/28 09:22:46;;;;;;;29.57;15.17;;;;;;;4.30;76.80;100173.45;125138;1102;104201;-76
2022/01/28 09:25:19;;;;;;;30.23;15.77;;;;;;;4.37;77.34;100160.00;125168;1099;104264;-77
2022/01/28 09:27:51;;;;;;;33.97;14.60;;;;;;;4.37;76.65;100152.20;125179;1099;104239;-78
2022/01/28 09:30:23;;;;;;;30.45;14.50;;;;;;;4.35;76.67;100152.92;125181;1099;104184;-77
2022/01/28 09:32:56;;;;;;;28.97;14.67;;;;;;;4.32;76.38;100154.55;125159;1102;104274;-77
2022/01/28 09:35:28;;;;;;;34.00;15.70;;;;;;;4.31;76.97;100144.95;125182;1102;104152;-77
2022/01/28 09:38:19;;;;;;;34.90;15.67;;;;;;;4.34;76.66;100131.25;125072;1099;104229;-77
2022/01/28 09:40:56;;;;;;;32.13;16.30;;;;;;;4.44;76.68;100140.44;125190;1102;104236;-77
2022/01/28 09:43:26;;;;;;;;;;;;;;;4.55;76.65;100133.22;125247;1099;104222;-77
2022/01/28 09:45:59;;;;;;;30.80;16.03;;;;;;;4.62;76.60;100136.23;125102;1102;105165;-79
2022/01/28 09:48:31;;;;;;;32.30;16.03;;;;;;;4.69;76.80;100140.08;125110;1102;104165;-76
2022/01/28 09:51:04;;;;;;;31.33;15.70;;;;;;;4.75;76.84;100153.37;125081;1102;104264;-78
2022/01/28 09:53:39;;;;;;;32.13;15.57;;;;;;;4.81;76.22;100145.02;125182;1102;104264;-78
2022/01/28 09:56:11;;;;;;;32.80;15.50;;;;;;;4.87;76.67;100142.73;125256;1102;104269;-77
2022/01/28 09:58:45;;;;;;;32.03;15.30;;;;;;;4.94;76.50;100131.86;125196;1102;104223;-78
2022/01/28 10:01:16;;;;;;;33.00;15.60;;;;;;;4.96;75.77;100135.42;125225;1102;104156;-79
2022/01/28 10:03:59;;;;;;;29.13;14.87;;;;;;;4.97;76.10;100138.91;125209;1102;104417;-77
2022/01/28 10:06:36;;;;;;;31.13;14.93;;;;;;;5.00;75.80;100131.27;125120;1102;104187;-78
2022/01/28 10:09:12;;;;;;;32.57;16.13;;;;;;;5.06;76.43;100130.70;125063;1102;104207;-77
2022/01/28 10:11:46;;;;;;;30.93;15.53;;;;;;;5.12;76.19;100125.82;124992;1102;104213;-78
2022/01/28 10:14:21;;;;;;;28.30;14.28;;;;;;;5.14;75.59;100126.78;125088;1102;104175;-77
2022/01/28 10:16:59;;;;;;;32.83;14.13;;;;;;;5.15;75.71;100118.17;125167;1102;104435;-78
2022/01/28 10:19:42;;;;;;;28.37;13.87;;;;;;;5.16;75.78;100135.58;125126;1102;104398;-77
2022/01/28 10:22:22;;;;;;;26.53;13.37;;;;;;;5.19;75.41;100138.34;125096;1101;104325;-76
2022/01/28 10:24:54;;;;;;;25.83;12.70;;;;;;;5.21;75.29;100123.69;125076;1102;104178;-78
2022/01/28 10:27:27;;;;;;;25.57;12.43;;;;;;;5.25;75.66;100114.33;125065;1102;104168;-77
2022/01/28 10:30:07;;;;;;;27.40;12.23;;;;;;;5.28;75.59;100106.67;125058;1102;104466;-78
2022/01/28 10:32:39;;;;;;;22.33;9.90;;;;;;;5.32;75.64;100113.83;125151;1102;104304;-78
2022/01/28 10:35:11;;;;;;;21.70;10.17;;;;;;;5.34;75.41;100120.00;125137;1102;104182;-78
2022/01/28 10:37:56;;;;;;;23.90;11.00;;;;;;;5.35;75.46;100122.67;125042;1102;104152;-79
2022/01/28 10:40:31;;;;;;;22.50;10.37;;;;;;;5.36;75.51;100119.27;125205;1100;104146;-78
2022/01/28 10:43:09;;;;;;;24.23;10.83;;;;;;;5.36;74.76;100119.27;125166;1102;104836;-76
2022/01/28 10:45:44;;;;;;;23.50;10.57;;;;;;;5.34;75.18;100113.07;125162;1101;104306;-77
2022/01/28 10:48:25;;;;;;;25.67;11.10;;;;;;;5.31;75.19;100122.44;125104;1102;104300;-78
2022/01/28 10:50:58;;;;;;;22.73;11.00;;;;;;;5.26;75.49;100119.61;125140;1099;106070;-78
2022/01/28 10:53:38;;;;;;;22.30;10.90;;;;;;;5.22;74.94;100122.89;125039;1102;104245;-80
2022/01/28 10:56:14;;;;;;;25.23;11.43;;;;;;;5.19;75.31;100110.61;125092;1099;104742;-78
2022/01/28 10:58:48;;;;;;;23.17;10.37;;;;;;;5.19;75.09;100102.80;125050;1099;104223;-77
2022/01/28 11:01:18;;;;;;;;;;;;;;;5.17;74.76;100093.12;125022;1099;104200;-77
2022/01/28 11:03:51;;;;;;;23.20;10.57;;;;;;;5.18;75.04;100101.00;124964;1100;104172;-78
2022/01/28 11:06:24;;;;;;;23.60;10.70;;;;;;;5.19;74.44;100099.32;125076;1099;104224;-77
2022/01/28 11:08:56;;;;;;;22.07;9.67;;;;;;;5.21;74.72;100095.08;124972;1102;104287;-77
2022/01/28 11:11:28;;;;;;;23.27;10.10;;;;;;;5.24;74.02;100084.83;125042;1099;104198;-77
2022/01/28 11:14:00;;;;;;;24.47;10.17;;;;;;;5.27;73.39;100089.30;124938;1100;104270;-77
2022/01/28 11:16:33;;;;;;;19.97;9.20;;;;;;;5.29;74.20;100092.86;124910;1102;104213;-76
2022/01/28 11:19:07;;;;;;;20.20;9.20;;;;;;;5.27;74.23;100095.39;124971;1102;104213;-77
2022/01/28 11:22:00;;;;;;;21.17;9.65;;;;;;;5.28;74.13;100086.75;124920;1099;109425;-77
2022/01/28 11:24:47;;;;;;;21.77;9.60;;;;;;;5.32;73.67;100078.29;124950;1100;104179;-78
2022/01/28 11:27:26;;;;;;;22.97;10.70;;;;;;;5.40;73.81;100073.47;124982;1102;104200;-78
2022/01/28 11:30:25;;;;;;;22.97;10.13;;;;;;;5.50;74.32;100072.20;124903;1099;104178;-77
2022/01/28 11:33:01;;;;;;;24.87;9.43;;;;;;;5.60;74.37;100063.16;125037;1100;104319;-78
2022/01/28 11:35:38;;;;;;;21.50;10.10;;;;;;;5.67;73.75;100057.41;124961;1098;104649;-78
2022/01/28 11:38:44;;;;;;;22.00;9.77;;;;;;;5.79;74.17;100057.12;124938;1099;104226;-77
2022/01/28 11:41:15;;;;;;;;;;;;;;;5.88;73.62;100058.44;124739;1102;104341;-77
2022/01/28 11:43:55;;;;;;;21.50;10.15;;;;;;;5.90;73.85;100055.91;124679;1102;104425;-77
2022/01/28 11:46:30;;;;;;;20.07;9.50;;;;;;;5.91;73.86;100057.70;124777;1102;104418;-76
2022/01/28 11:49:23;;;;;;;22.30;9.33;;;;;;;5.88;74.24;100053.23;124808;1102;104177;-79
2022/01/28 11:51:56;;;;;;;22.73;10.30;;;;;;;5.86;73.90;100046.16;124720;1102;104155;-77
2022/01/28 11:54:38;;;;;;;23.77;10.67;;;;;;;5.83;73.90;100056.42;124782;1102;104300;-77
2022/01/28 11:57:19;;;;;;;24.70;9.53;;;;;;;5.79;73.68;100059.72;124740;1102;104221;-77
2022/01/28 11:59:50;;;;;;;21.67;10.33;;;;;;;5.76;73.84;100053.56;124747;1102;104207;-77
2022/01/28 12:02:49;;;;;;;22.53;10.33;;;;;;;5.78;73.54;100045.82;124729;1102;104217;-79
2022/01/28 12:05:52;;;;;;;22.00;9.93;;;;;;;5.78;73.64;100042.30;124802;1102;104165;-77
2022/01/28 12:08:30;;;;;;;19.60;8.80;;;;;;;5.73;73.17;100037.79;124875;1102;104313;-77
2022/01/28 12:11:07;;;;;;;21.85;9.20;;;;;;;5.73;73.12;100039.48;124866;1102;104185;-77
2022/01/28 12:14:02;;;;;;;21.33;8.90;;;;;;;5.71;73.29;100042.02;125048;1099;104213;-78
2022/01/28 12:16:42;;;;;;;25.02;9.70;;;;;;;5.70;73.41;100039.34;125075;1099;104161;-79
2022/01/28 12:19:22;;;;;;;21.60;9.80;;;;;;;5.70;73.02;100041.94;124991;1099;104233;-78
2022/01/28 12:22:12;;;;;;;20.87;10.03;;;;;;;5.67;72.70;100047.91;125060;1102;104204;-79
2022/01/28 12:24:44;;;;;;;23.57;10.57;;;;;;;5.68;72.54;100054.88;124799;1102;104385;-79
2022/01/28 12:27:19;;;;;;;24.30;10.87;;;;;;;5.72;73.30;100053.34;125016;1102;104305;-79
2022/01/28 12:29:57;;;;;;;26.70;10.97;;;;;;;5.75;72.87;100059.58;125065;1103;104159;-79
2022/01/28 12:32:33;;;;;;;24.40;10.30;;;;;;;5.78;72.67;100057.92;125106;1102;104329;-80
2022/01/28 12:35:09;;;;;;;23.60;10.80;;;;;;;5.80;72.62;100061.48;124974;1102;104226;-79